sensor_id;sensor_type;location;lat;lon;timestamp;pressure;altitude;pressure_sealevel;temperature
79756;BMP280;69239;50.678;12.280;2023-11-22T00:01:59;98070.06;;;3.12
79756;BMP280;69239;50.678;12.280;2023-11-22T00:04:24;98091.19;;;3.16
79756;BMP280;69239;50.678;12.280;2023-11-22T00:06:50;98067.81;;;2.99
79756;BMP280;69239;50.678;12.280;2023-11-22T00:09:15;98102.38;;;3.16
79756;BMP280;69239;50.678;12.280;2023-11-22T00:11:40;98104.13;;;3.11
79756;BMP280;69239;50.678;12.280;2023-11-22T00:14:06;98102.53;;;3.09
79756;BMP280;69239;50.678;12.280;2023-11-22T00:16:31;98111.63;;;3.07
79756;BMP280;69239;50.678;12.280;2023-11-22T00:18:57;98106.81;;;2.99
79756;BMP280;69239;50.678;12.280;2023-11-22T00:21:22;98112.88;;;3.04
79756;BMP280;69239;50.678;12.280;2023-11-22T00:23:48;98116.75;;;3.02
79756;BMP280;69239;50.678;12.280;2023-11-22T00:26:13;98120.63;;;2.99
79756;BMP280;69239;50.678;12.280;2023-11-22T00:28:40;98114.88;;;2.97
79756;BMP280;69239;50.678;12.280;2023-11-22T00:31:06;98126.84;;;2.98
79756;BMP280;69239;50.678;12.280;2023-11-22T00:33:31;98105.84;;;2.83
79756;BMP280;69239;50.678;12.280;2023-11-22T00:35:57;98137.72;;;2.95
79756;BMP280;69239;50.678;12.280;2023-11-22T00:38:23;98134.34;;;2.95
79756;BMP280;69239;50.678;12.280;2023-11-22T00:40:49;98122.00;;;2.85
79756;BMP280;69239;50.678;12.280;2023-11-22T00:43:15;98104.19;;;2.77
79756;BMP280;69239;50.678;12.280;2023-11-22T00:45:41;98101.34;;;2.78
79756;BMP280;69239;50.678;12.280;2023-11-22T00:48:06;98122.00;;;2.85
79756;BMP280;69239;50.678;12.280;2023-11-22T00:50:32;98120.72;;;2.88
79756;BMP280;69239;50.678;12.280;2023-11-22T00:52:57;98110.63;;;2.74
79756;BMP280;69239;50.678;12.280;2023-11-22T00:55:23;98139.16;;;2.86
79756;BMP280;69239;50.678;12.280;2023-11-22T00:57:48;98135.47;;;2.82
79756;BMP280;69239;50.678;12.280;2023-11-22T01:00:14;98144.38;;;2.86
79756;BMP280;69239;50.678;12.280;2023-11-22T01:02:40;98139.16;;;2.86
79756;BMP280;69239;50.678;12.280;2023-11-22T01:05:07;98125.78;;;2.77
79756;BMP280;69239;50.678;12.280;2023-11-22T01:07:42;98145.56;;;2.78
79756;BMP280;69239;50.678;12.280;2023-11-22T01:10:08;98140.59;;;2.77
79756;BMP280;69239;50.678;12.280;2023-11-22T01:12:33;98137.44;;;2.75
79756;BMP280;69239;50.678;12.280;2023-11-22T01:14:59;98149.47;;;2.81
79756;BMP280;69239;50.678;12.280;2023-11-22T01:17:24;98163.06;;;2.83
79756;BMP280;69239;50.678;12.280;2023-11-22T01:19:50;98150.44;;;2.75
79756;BMP280;69239;50.678;12.280;2023-11-22T01:22:18;98145.16;;;2.70
79756;BMP280;69239;50.678;12.280;2023-11-22T01:24:43;98156.19;;;2.77
79756;BMP280;69239;50.678;12.280;2023-11-22T01:27:09;98155.41;;;2.76
79756;BMP280;69239;50.678;12.280;2023-11-22T01:29:34;98161.94;;;2.79
79756;BMP280;69239;50.678;12.280;2023-11-22T01:32:00;98173.50;;;2.88
79756;BMP280;69239;50.678;12.280;2023-11-22T01:34:26;98175.13;;;2.89
79756;BMP280;69239;50.678;12.280;2023-11-22T01:36:51;98184.53;;;2.95
79756;BMP280;69239;50.678;12.280;2023-11-22T01:39:17;98176.06;;;2.83
79756;BMP280;69239;50.678;12.280;2023-11-22T01:41:46;98186.44;;;2.83
79756;BMP280;69239;50.678;12.280;2023-11-22T01:44:14;98186.44;;;2.83
79756;BMP280;69239;50.678;12.280;2023-11-22T01:46:40;98170.66;;;2.73
79756;BMP280;69239;50.678;12.280;2023-11-22T01:49:06;98193.69;;;2.81
79756;BMP280;69239;50.678;12.280;2023-11-22T01:51:31;98194.72;;;2.80
79756;BMP280;69239;50.678;12.280;2023-11-22T01:53:57;98201.47;;;2.81
79756;BMP280;69239;50.678;12.280;2023-11-22T01:56:25;98190.94;;;2.71
79756;BMP280;69239;50.678;12.280;2023-11-22T01:58:52;98203.78;;;2.77
79756;BMP280;69239;50.678;12.280;2023-11-22T02:01:19;98196.13;;;2.71
79756;BMP280;69239;50.678;12.280;2023-11-22T02:03:45;98171.47;;;2.57
79756;BMP280;69239;50.678;12.280;2023-11-22T02:06:14;98188.31;;;2.71
79756;BMP280;69239;50.678;12.280;2023-11-22T02:08:41;98175.75;;;2.63
79756;BMP280;69239;50.678;12.280;2023-11-22T02:11:06;98195.09;;;2.72
79756;BMP280;69239;50.678;12.280;2023-11-22T02:13:32;98183.00;;;2.61
79756;BMP280;69239;50.678;12.280;2023-11-22T02:15:58;98204.72;;;2.71
79756;BMP280;69239;50.678;12.280;2023-11-22T02:18:25;98190.81;;;2.66
79756;BMP280;69239;50.678;12.280;2023-11-22T02:20:51;98198.19;;;2.69
79756;BMP280;69239;50.678;12.280;2023-11-22T02:23:16;98184.56;;;2.62
79756;BMP280;69239;50.678;12.280;2023-11-22T02:25:42;98190.69;;;2.56
79756;BMP280;69239;50.678;12.280;2023-11-22T02:28:08;98206.44;;;2.66
79756;BMP280;69239;50.678;12.280;2023-11-22T02:30:34;98201.63;;;2.58
79756;BMP280;69239;50.678;12.280;2023-11-22T02:32:59;98221.78;;;2.67
79756;BMP280;69239;50.678;12.280;2023-11-22T02:35:25;98218.81;;;2.59
79756;BMP280;69239;50.678;12.280;2023-11-22T02:37:55;98225.75;;;2.70
79756;BMP280;69239;50.678;12.280;2023-11-22T02:40:22;98224.63;;;2.66
79756;BMP280;69239;50.678;12.280;2023-11-22T02:42:48;98214.41;;;2.59
79756;BMP280;69239;50.678;12.280;2023-11-22T02:45:15;98227.22;;;2.66
79756;BMP280;69239;50.678;12.280;2023-11-22T02:47:40;98222.03;;;2.66
79756;BMP280;69239;50.678;12.280;2023-11-22T02:50:06;98223.31;;;2.63
79756;BMP280;69239;50.678;12.280;2023-11-22T02:52:32;98219.81;;;2.58
79756;BMP280;69239;50.678;12.280;2023-11-22T02:54:58;98213.88;;;2.45
79756;BMP280;69239;50.678;12.280;2023-11-22T02:57:24;98219.19;;;2.50
79756;BMP280;69239;50.678;12.280;2023-11-22T02:59:49;98221.03;;;2.38
79756;BMP280;69239;50.678;12.280;2023-11-22T03:02:15;98227.81;;;2.39
79756;BMP280;69239;50.678;12.280;2023-11-22T03:04:42;98240.91;;;2.44
79756;BMP280;69239;50.678;12.280;2023-11-22T03:07:08;98231.66;;;2.37
79756;BMP280;69239;50.678;12.280;2023-11-22T03:09:34;98232.13;;;2.34
79756;BMP280;69239;50.678;12.280;2023-11-22T03:11:59;98250.75;;;2.42
79756;BMP280;69239;50.678;12.280;2023-11-22T03:14:25;98254.38;;;2.41
79756;BMP280;69239;50.678;12.280;2023-11-22T03:16:50;98261.69;;;2.44
79756;BMP280;69239;50.678;12.280;2023-11-22T03:19:16;98260.44;;;2.47
79756;BMP280;69239;50.678;12.280;2023-11-22T03:21:41;98240.47;;;2.36
79756;BMP280;69239;50.678;12.280;2023-11-22T03:24:09;98248.59;;;2.39
79756;BMP280;69239;50.678;12.280;2023-11-22T03:26:35;98264.84;;;2.46
79756;BMP280;69239;50.678;12.280;2023-11-22T03:29:01;98264.66;;;2.36
79756;BMP280;69239;50.678;12.280;2023-11-22T03:31:27;98263.06;;;2.35
79756;BMP280;69239;50.678;12.280;2023-11-22T03:33:53;98263.53;;;2.32
79756;BMP280;69239;50.678;12.280;2023-11-22T03:36:19;98269.75;;;2.31
79756;BMP280;69239;50.678;12.280;2023-11-22T03:38:45;98285.91;;;2.33
79756;BMP280;69239;50.678;12.280;2023-11-22T03:41:10;98278.94;;;2.22
79756;BMP280;69239;50.678;12.280;2023-11-22T03:43:35;98309.75;;;2.30
79756;BMP280;69239;50.678;12.280;2023-11-22T03:46:01;98304.44;;;2.25
79756;BMP280;69239;50.678;12.280;2023-11-22T03:48:27;98314.63;;;2.27
79756;BMP280;69239;50.678;12.280;2023-11-22T03:50:53;98308.66;;;2.26
79756;BMP280;69239;50.678;12.280;2023-11-22T03:53:19;98319.25;;;2.24
79756;BMP280;69239;50.678;12.280;2023-11-22T03:55:47;98319.06;;;2.26
79756;BMP280;69239;50.678;12.280;2023-11-22T03:58:12;98316.09;;;2.22
79756;BMP280;69239;50.678;12.280;2023-11-22T04:00:38;98337.56;;;2.30
79756;BMP280;69239;50.678;12.280;2023-11-22T04:03:03;98331.31;;;2.31
79756;BMP280;69239;50.678;12.280;2023-11-22T04:05:29;98314.41;;;2.16
79756;BMP280;69239;50.678;12.280;2023-11-22T04:07:54;98337.66;;;2.23
79756;BMP280;69239;50.678;12.280;2023-11-22T04:10:21;98330.69;;;2.12
79756;BMP280;69239;50.678;12.280;2023-11-22T04:12:47;98345.94;;;2.20
79756;BMP280;69239;50.678;12.280;2023-11-22T04:15:13;98347.94;;;2.18
79756;BMP280;69239;50.678;12.280;2023-11-22T04:17:39;98337.91;;;2.10
79756;BMP280;69239;50.678;12.280;2023-11-22T04:20:09;98347.84;;;2.13
79756;BMP280;69239;50.678;12.280;2023-11-22T04:22:40;98354.63;;;2.14
79756;BMP280;69239;50.678;12.280;2023-11-22T04:25:05;98353.50;;;2.10
79756;BMP280;69239;50.678;12.280;2023-11-22T04:27:32;98361.88;;;2.12
79756;BMP280;69239;50.678;12.280;2023-11-22T04:29:58;98360.72;;;2.08
79756;BMP280;69239;50.678;12.280;2023-11-22T04:32:23;98379.81;;;2.13
79756;BMP280;69239;50.678;12.280;2023-11-22T04:34:49;98359.38;;;2.05
79756;BMP280;69239;50.678;12.280;2023-11-22T04:37:14;98375.41;;;2.14
79756;BMP280;69239;50.678;12.280;2023-11-22T04:39:39;98364.09;;;2.08
79756;BMP280;69239;50.678;12.280;2023-11-22T04:42:05;98358.34;;;2.06
79756;BMP280;69239;50.678;12.280;2023-11-22T04:44:31;98371.78;;;2.15
79756;BMP280;69239;50.678;12.280;2023-11-22T04:46:57;98383.88;;;2.21
79756;BMP280;69239;50.678;12.280;2023-11-22T04:49:25;98377.34;;;2.18
79756;BMP280;69239;50.678;12.280;2023-11-22T04:51:51;98372.81;;;2.14
79756;BMP280;69239;50.678;12.280;2023-11-22T04:54:16;98354.84;;;2.01
79756;BMP280;69239;50.678;12.280;2023-11-22T04:56:42;98364.00;;;2.03
79756;BMP280;69239;50.678;12.280;2023-11-22T04:59:09;98381.72;;;2.18
79756;BMP280;69239;50.678;12.280;2023-11-22T05:01:34;98375.41;;;2.14
79756;BMP280;69239;50.678;12.280;2023-11-22T05:03:59;98373.47;;;2.09
79756;BMP280;69239;50.678;12.280;2023-11-22T05:06:25;98380.59;;;2.14
79756;BMP280;69239;50.678;12.280;2023-11-22T05:08:52;98390.53;;;2.17
79756;BMP280;69239;50.678;12.280;2023-11-22T05:11:17;98345.97;;;1.85
79756;BMP280;69239;50.678;12.280;2023-11-22T05:13:43;98384.66;;;2.10
79756;BMP280;69239;50.678;12.280;2023-11-22T05:16:09;98387.38;;;2.15
79756;BMP280;69239;50.678;12.280;2023-11-22T05:18:34;98402.97;;;2.15
79756;BMP280;69239;50.678;12.280;2023-11-22T05:21:01;98406.81;;;2.12
79756;BMP280;69239;50.678;12.280;2023-11-22T05:23:28;98401.81;;;2.11
79756;BMP280;69239;50.678;12.280;2023-11-22T05:25:53;98392.56;;;2.15
79756;BMP280;69239;50.678;12.280;2023-11-22T05:28:19;98400.13;;;2.16
79756;BMP280;69239;50.678;12.280;2023-11-22T05:30:44;98406.13;;;2.17
79756;BMP280;69239;50.678;12.280;2023-11-22T05:33:10;98410.41;;;2.23
79756;BMP280;69239;50.678;12.280;2023-11-22T05:35:35;98401.34;;;2.37
79756;BMP280;69239;50.678;12.280;2023-11-22T05:38:00;98414.34;;;2.61
79756;BMP280;69239;50.678;12.280;2023-11-22T05:40:27;98409.41;;;2.76
79756;BMP280;69239;50.678;12.280;2023-11-22T05:42:52;98410.38;;;2.87
79756;BMP280;69239;50.678;12.280;2023-11-22T05:45:18;98392.06;;;2.81
79756;BMP280;69239;50.678;12.280;2023-11-22T05:47:43;98402.47;;;2.81
79756;BMP280;69239;50.678;12.280;2023-11-22T05:50:09;98421.38;;;2.77
79756;BMP280;69239;50.678;12.280;2023-11-22T05:52:34;98425.22;;;2.74
79756;BMP280;69239;50.678;12.280;2023-11-22T05:55:00;98441.06;;;2.73
79756;BMP280;69239;50.678;12.280;2023-11-22T05:57:29;98428.91;;;2.62
79756;BMP280;69239;50.678;12.280;2023-11-22T05:59:55;98450.50;;;2.62
79756;BMP280;69239;50.678;12.280;2023-11-22T06:02:21;98447.31;;;2.60
79756;BMP280;69239;50.678;12.280;2023-11-22T06:04:46;98457.38;;;2.57
79756;BMP280;69239;50.678;12.280;2023-11-22T06:07:12;98465.41;;;2.55
79756;BMP280;69239;50.678;12.280;2023-11-22T06:09:37;98452.09;;;2.40
79756;BMP280;69239;50.678;12.280;2023-11-22T06:12:03;98465.06;;;2.40
79756;BMP280;69239;50.678;12.280;2023-11-22T06:14:29;98473.66;;;2.40
79756;BMP280;69239;50.678;12.280;2023-11-22T06:16:54;98472.28;;;2.38
79756;BMP280;69239;50.678;12.280;2023-11-22T06:19:19;98472.41;;;2.31
79756;BMP280;69239;50.678;12.280;2023-11-22T06:21:45;98485.97;;;2.33
79756;BMP280;69239;50.678;12.280;2023-11-22T06:24:11;98489.03;;;2.30
79756;BMP280;69239;50.678;12.280;2023-11-22T06:26:42;98484.16;;;2.22
79756;BMP280;69239;50.678;12.280;2023-11-22T06:29:11;98492.88;;;2.28
79756;BMP280;69239;50.678;12.280;2023-11-22T06:31:36;98489.38;;;2.22
79756;BMP280;69239;50.678;12.280;2023-11-22T06:34:01;98487.56;;;2.22
79756;BMP280;69239;50.678;12.280;2023-11-22T06:36:27;98490.06;;;2.29
79756;BMP280;69239;50.678;12.280;2023-11-22T06:38:53;98481.69;;;2.27
79756;BMP280;69239;50.678;12.280;2023-11-22T06:41:19;98493.78;;;2.33
79756;BMP280;69239;50.678;12.280;2023-11-22T06:43:47;98503.84;;;2.30
79756;BMP280;69239;50.678;12.280;2023-11-22T06:46:13;98497.28;;;2.27
79756;BMP280;69239;50.678;12.280;2023-11-22T06:48:41;98500.66;;;2.16
79756;BMP280;69239;50.678;12.280;2023-11-22T06:51:06;98502.91;;;2.12
79756;BMP280;69239;50.678;12.280;2023-11-22T06:53:32;98507.97;;;2.07
79756;BMP280;69239;50.678;12.280;2023-11-22T06:55:57;98517.81;;;2.05
79756;BMP280;69239;50.678;12.280;2023-11-22T06:58:23;98513.91;;;1.96
79756;BMP280;69239;50.678;12.280;2023-11-22T07:00:48;98530.28;;;1.96
79756;BMP280;69239;50.678;12.280;2023-11-22T07:03:13;98533.34;;;1.93
79756;BMP280;69239;50.678;12.280;2023-11-22T07:05:39;98520.94;;;1.84
79756;BMP280;69239;50.678;12.280;2023-11-22T07:08:05;98531.31;;;1.84
79756;BMP280;69239;50.678;12.280;2023-11-22T07:10:30;98531.81;;;1.74
79756;BMP280;69239;50.678;12.280;2023-11-22T07:13:02;98558.50;;;1.81
79756;BMP280;69239;50.678;12.280;2023-11-22T07:15:29;98549.78;;;1.76
79756;BMP280;69239;50.678;12.280;2023-11-22T07:17:54;98559.34;;;1.75
79756;BMP280;69239;50.678;12.280;2023-11-22T07:20:20;98552.81;;;1.73
79756;BMP280;69239;50.678;12.280;2023-11-22T07:22:46;98558.06;;;1.84
79756;BMP280;69239;50.678;12.280;2023-11-22T07:25:12;98555.47;;;1.84
79756;BMP280;69239;50.678;12.280;2023-11-22T07:27:50;98562.88;;;1.81
79756;BMP280;69239;50.678;12.280;2023-11-22T07:30:16;98563.56;;;1.76
79756;BMP280;69239;50.678;12.280;2023-11-22T07:32:44;98552.44;;;1.69
79756;BMP280;69239;50.678;12.280;2023-11-22T07:35:10;98559.88;;;1.65
79756;BMP280;69239;50.678;12.280;2023-11-22T07:37:37;98570.28;;;1.65
79756;BMP280;69239;50.678;12.280;2023-11-22T07:40:08;98571.94;;;1.60
79756;BMP280;69239;50.678;12.280;2023-11-22T07:42:36;98587.66;;;1.65
79756;BMP280;69239;50.678;12.280;2023-11-22T07:45:01;98588.28;;;1.60
79756;BMP280;69239;50.678;12.280;2023-11-22T07:47:27;98595.84;;;1.62
79756;BMP280;69239;50.678;12.280;2023-11-22T07:49:53;98591.09;;;1.59
79756;BMP280;69239;50.678;12.280;2023-11-22T07:52:21;98593.38;;;1.55
79756;BMP280;69239;50.678;12.280;2023-11-22T07:54:46;98592.53;;;1.55
79756;BMP280;69239;50.678;12.280;2023-11-22T07:57:13;98605.31;;;1.56
79756;BMP280;69239;50.678;12.280;2023-11-22T07:59:38;98543.28;;;1.18
79756;BMP280;69239;50.678;12.280;2023-11-22T08:02:05;98602.66;;;1.45
79756;BMP280;69239;50.678;12.280;2023-11-22T08:04:36;98611.44;;;1.44
79756;BMP280;69239;50.678;12.280;2023-11-22T08:07:01;98620.59;;;1.46
79756;BMP280;69239;50.678;12.280;2023-11-22T08:09:27;98625.22;;;1.44
79756;BMP280;69239;50.678;12.280;2023-11-22T08:11:58;98624.41;;;1.44
79756;BMP280;69239;50.678;12.280;2023-11-22T08:14:26;98635.94;;;1.48
79756;BMP280;69239;50.678;12.280;2023-11-22T08:16:53;98627.66;;;1.39
79756;BMP280;69239;50.678;12.280;2023-11-22T08:19:19;98642.75;;;1.49
79756;BMP280;69239;50.678;12.280;2023-11-22T08:21:44;98616.34;;;1.33
79756;BMP280;69239;50.678;12.280;2023-11-22T08:24:10;98641.50;;;1.51
79756;BMP280;69239;50.678;12.280;2023-11-22T08:26:39;98639.13;;;1.50
79756;BMP280;69239;50.678;12.280;2023-11-22T08:29:04;98612.75;;;1.34
79756;BMP280;69239;50.678;12.280;2023-11-22T08:31:30;98625.22;;;1.44
79756;BMP280;69239;50.678;12.280;2023-11-22T08:33:56;98622.63;;;1.44
79756;BMP280;69239;50.678;12.280;2023-11-22T08:36:22;98595.88;;;1.25
79756;BMP280;69239;50.678;12.280;2023-11-22T08:38:48;98623.41;;;1.45
79756;BMP280;69239;50.678;12.280;2023-11-22T08:41:14;98622.41;;;1.46
79756;BMP280;69239;50.678;12.280;2023-11-22T08:43:40;98598.19;;;1.33
79756;BMP280;69239;50.678;12.280;2023-11-22T08:46:06;98616.00;;;1.48
79756;BMP280;69239;50.678;12.280;2023-11-22T08:48:34;98606.03;;;1.45
79756;BMP280;69239;50.678;12.280;2023-11-22T08:51:00;98604.44;;;1.44
79756;BMP280;69239;50.678;12.280;2023-11-22T08:53:26;98589.81;;;1.50
79756;BMP280;69239;50.678;12.280;2023-11-22T08:55:52;98591.03;;;1.47
79756;BMP280;69239;50.678;12.280;2023-11-22T08:58:20;98597.16;;;1.53
79756;BMP280;69239;50.678;12.280;2023-11-22T09:00:45;98593.22;;;1.50
79756;BMP280;69239;50.678;12.280;2023-11-22T09:03:12;98598.34;;;1.57
79756;BMP280;69239;50.678;12.280;2023-11-22T09:05:44;98604.66;;;1.61
79756;BMP280;69239;50.678;12.280;2023-11-22T09:08:11;98597.53;;;1.56
79756;BMP280;69239;50.678;12.280;2023-11-22T09:10:39;98604.25;;;1.64
79756;BMP280;69239;50.678;12.280;2023-11-22T09:13:08;98576.34;;;1.59
79756;BMP280;69239;50.678;12.280;2023-11-22T09:15:34;98585.63;;;1.67
79756;BMP280;69239;50.678;12.280;2023-11-22T09:18:00;98603.28;;;1.77
79756;BMP280;69239;50.678;12.280;2023-11-22T09:20:26;98612.66;;;1.78
79756;BMP280;69239;50.678;12.280;2023-11-22T09:22:53;98610.16;;;1.71
79756;BMP280;69239;50.678;12.280;2023-11-22T09:25:24;98616.69;;;1.74
79756;BMP280;69239;50.678;12.280;2023-11-22T09:27:51;98624.13;;;1.70
79756;BMP280;69239;50.678;12.280;2023-11-22T09:30:21;98622.53;;;1.69
79756;BMP280;69239;50.678;12.280;2023-11-22T09:33:10;98644.03;;;1.76
79756;BMP280;69239;50.678;12.280;2023-11-22T09:35:36;98653.25;;;1.72
79756;BMP280;69239;50.678;12.280;2023-11-22T09:38:04;98649.72;;;1.66
79756;BMP280;69239;50.678;12.280;2023-11-22T09:40:30;98658.47;;;1.72
79756;BMP280;69239;50.678;12.280;2023-11-22T09:42:59;98642.72;;;1.67
79756;BMP280;69239;50.678;12.280;2023-11-22T09:45:27;98625.00;;;1.64
79756;BMP280;69239;50.678;12.280;2023-11-22T09:47:53;98645.09;;;1.68
79756;BMP280;69239;50.678;12.280;2023-11-22T09:52:50;98658.22;;;1.74
79756;BMP280;69239;50.678;12.280;2023-11-22T09:55:21;98656.19;;;1.76
79756;BMP280;69239;50.678;12.280;2023-11-22T09:57:47;98642.16;;;1.65
79756;BMP280;69239;50.678;12.280;2023-11-22T10:00:14;98644.47;;;1.73
79756;BMP280;69239;50.678;12.280;2023-11-22T10:02:44;98652.97;;;1.80
79756;BMP280;69239;50.678;12.280;2023-11-22T10:05:10;98625.41;;;1.79
79756;BMP280;69239;50.678;12.280;2023-11-22T10:07:37;98645.25;;;2.04
79756;BMP280;69239;50.678;12.280;2023-11-22T10:10:04;98637.03;;;2.07
79756;BMP280;69239;50.678;12.280;2023-11-22T10:12:32;98627.78;;;2.11
79756;BMP280;69239;50.678;12.280;2023-11-22T10:15:15;98626.59;;;2.25
79756;BMP280;69239;50.678;12.280;2023-11-22T10:17:53;98608.44;;;2.37
79756;BMP280;69239;50.678;12.280;2023-11-22T10:20:23;98606.63;;;2.37
79756;BMP280;69239;50.678;12.280;2023-11-22T10:22:48;98609.59;;;2.41
79756;BMP280;69239;50.678;12.280;2023-11-22T10:25:17;98616.25;;;2.48
79756;BMP280;69239;50.678;12.280;2023-11-22T10:27:46;98595.25;;;2.50
79756;BMP280;69239;50.678;12.280;2023-11-22T10:30:17;98584.63;;;2.51
79756;BMP280;69239;50.678;12.280;2023-11-22T10:32:44;98598.53;;;2.57
79756;BMP280;69239;50.678;12.280;2023-11-22T10:35:10;98600.22;;;2.51
79756;BMP280;69239;50.678;12.280;2023-11-22T10:37:36;98589.22;;;2.38
79756;BMP280;69239;50.678;12.280;2023-11-22T10:40:02;98590.81;;;2.39
79756;BMP280;69239;50.678;12.280;2023-11-22T10:42:31;98606.28;;;2.45
79756;BMP280;69239;50.678;12.280;2023-11-22T10:45:00;98619.88;;;2.47
79756;BMP280;69239;50.678;12.280;2023-11-22T10:47:29;98617.72;;;2.44
79756;BMP280;69239;50.678;12.280;2023-11-22T10:49:55;98619.28;;;2.45
79756;BMP280;69239;50.678;12.280;2023-11-22T10:52:27;98615.22;;;2.38
79756;BMP280;69239;50.678;12.280;2023-11-22T10:54:57;98630.56;;;2.39
79756;BMP280;69239;50.678;12.280;2023-11-22T10:57:32;98632.28;;;2.45
79756;BMP280;69239;50.678;12.280;2023-11-22T11:00:03;98620.50;;;2.31
79756;BMP280;69239;50.678;12.280;2023-11-22T11:02:40;98640.97;;;2.39
79756;BMP280;69239;50.678;12.280;2023-11-22T11:05:16;98651.94;;;2.41
79756;BMP280;69239;50.678;12.280;2023-11-22T11:07:49;98657.72;;;2.43
79756;BMP280;69239;50.678;12.280;2023-11-22T11:10:19;98655.13;;;2.43
79756;BMP280;69239;50.678;12.280;2023-11-22T11:12:45;98675.03;;;2.49
79756;BMP280;69239;50.678;12.280;2023-11-22T11:15:12;98659.56;;;2.66
79756;BMP280;69239;50.678;12.280;2023-11-22T11:17:37;98651.44;;;2.63
79756;BMP280;69239;50.678;12.280;2023-11-22T11:20:05;98667.38;;;2.78
79756;BMP280;69239;50.678;12.280;2023-11-22T11:22:32;98673.28;;;2.85
79756;BMP280;69239;50.678;12.280;2023-11-22T11:25:04;98684.59;;;2.91
79756;BMP280;69239;50.678;12.280;2023-11-22T11:27:34;98676.13;;;2.84
79756;BMP280;69239;50.678;12.280;2023-11-22T11:30:22;98679.72;;;2.83
79756;BMP280;69239;50.678;12.280;2023-11-22T11:32:50;98677.78;;;2.78
79756;BMP280;69239;50.678;12.280;2023-11-22T11:35:17;98686.84;;;2.75
79756;BMP280;69239;50.678;12.280;2023-11-22T11:37:46;98688.75;;;2.80
79756;BMP280;69239;50.678;12.280;2023-11-22T11:40:33;98685.13;;;2.81
79756;BMP280;69239;50.678;12.280;2023-11-22T11:42:59;98696.22;;;2.76
79756;BMP280;69239;50.678;12.280;2023-11-22T11:45:24;98700.81;;;2.74
79756;BMP280;69239;50.678;12.280;2023-11-22T11:47:50;98702.44;;;2.75
79756;BMP280;69239;50.678;12.280;2023-11-22T11:50:16;98641.53;;;2.30
79756;BMP280;69239;50.678;12.280;2023-11-22T11:52:41;98700.72;;;2.69
79756;BMP280;69239;50.678;12.280;2023-11-22T11:55:07;98682.09;;;2.61
79756;BMP280;69239;50.678;12.280;2023-11-22T11:57:32;98682.09;;;2.61
79756;BMP280;69239;50.678;12.280;2023-11-22T11:59:58;98699.94;;;2.69
79756;BMP280;69239;50.678;12.280;2023-11-22T12:02:24;98674.84;;;2.63
79756;BMP280;69239;50.678;12.280;2023-11-22T12:04:50;98670.06;;;2.60
79756;BMP280;69239;50.678;12.280;2023-11-22T12:07:15;98667.84;;;2.63
79756;BMP280;69239;50.678;12.280;2023-11-22T12:09:41;98668.25;;;2.60
79756;BMP280;69239;50.678;12.280;2023-11-22T12:12:06;98676.88;;;2.61
79756;BMP280;69239;50.678;12.280;2023-11-22T12:14:32;98664.53;;;2.56
79756;BMP280;69239;50.678;12.280;2023-11-22T12:16:58;98673.25;;;2.62
79756;BMP280;69239;50.678;12.280;2023-11-22T12:19:25;98674.72;;;2.69
79756;BMP280;69239;50.678;12.280;2023-11-22T12:21:52;98680.16;;;2.79
79756;BMP280;69239;50.678;12.280;2023-11-22T12:24:18;98682.44;;;2.88
79756;BMP280;69239;50.678;12.280;2023-11-22T12:26:45;98673.28;;;2.85
79756;BMP280;69239;50.678;12.280;2023-11-22T12:29:13;98658.56;;;2.79
79756;BMP280;69239;50.678;12.280;2023-11-22T12:31:48;98657.69;;;2.85
79756;BMP280;69239;50.678;12.280;2023-11-22T12:34:16;98653.03;;;2.87
79756;BMP280;69239;50.678;12.280;2023-11-22T12:36:42;98642.19;;;2.78
79756;BMP280;69239;50.678;12.280;2023-11-22T12:39:10;98648.53;;;2.83
79756;BMP280;69239;50.678;12.280;2023-11-22T12:41:47;98649.41;;;2.76
79756;BMP280;69239;50.678;12.280;2023-11-22T12:44:12;98649.94;;;2.67
79756;BMP280;69239;50.678;12.280;2023-11-22T12:47:04;98638.78;;;2.55
79756;BMP280;69239;50.678;12.280;2023-11-22T12:49:43;98616.69;;;2.34
79756;BMP280;69239;50.678;12.280;2023-11-22T12:52:10;98625.97;;;2.41
79756;BMP280;69239;50.678;12.280;2023-11-22T12:54:37;98564.50;;;1.93
79756;BMP280;69239;50.678;12.280;2023-11-22T12:57:09;98638.16;;;2.29
79756;BMP280;69239;50.678;12.280;2023-11-22T12:59:35;98613.94;;;2.17
79756;BMP280;69239;50.678;12.280;2023-11-22T13:02:00;98618.69;;;2.20
79756;BMP280;69239;50.678;12.280;2023-11-22T13:04:27;98619.72;;;2.19
79756;BMP280;69239;50.678;12.280;2023-11-22T13:06:54;98606.72;;;2.19
79756;BMP280;69239;50.678;12.280;2023-11-22T13:09:20;98605.56;;;2.15
79756;BMP280;69239;50.678;12.280;2023-11-22T13:11:45;98582.72;;;2.05
79756;BMP280;69239;50.678;12.280;2023-11-22T13:14:11;98573.69;;;2.08
79756;BMP280;69239;50.678;12.280;2023-11-22T13:16:40;98586.22;;;2.11
79756;BMP280;69239;50.678;12.280;2023-11-22T13:19:05;98584.53;;;2.05
79756;BMP280;69239;50.678;12.280;2023-11-22T13:21:31;98564.50;;;1.93
79756;BMP280;69239;50.678;12.280;2023-11-22T13:23:57;98578.19;;;2.01
79756;BMP280;69239;50.678;12.280;2023-11-22T13:26:25;98583.38;;;2.01
79756;BMP280;69239;50.678;12.280;2023-11-22T13:28:51;98590.25;;;1.95
79756;BMP280;69239;50.678;12.280;2023-11-22T13:31:17;98600.72;;;1.88
79756;BMP280;69239;50.678;12.280;2023-11-22T13:33:42;98616.19;;;1.83
79756;BMP280;69239;50.678;12.280;2023-11-22T13:36:09;98646.34;;;1.84
79756;BMP280;69239;50.678;12.280;2023-11-22T13:38:36;98645.97;;;1.81
79756;BMP280;69239;50.678;12.280;2023-11-22T13:41:02;98640.13;;;1.85
79756;BMP280;69239;50.678;12.280;2023-11-22T13:43:27;98647.03;;;1.91
79756;BMP280;69239;50.678;12.280;2023-11-22T13:45:53;98635.06;;;1.90
79756;BMP280;69239;50.678;12.280;2023-11-22T13:48:18;98630.06;;;1.89
79756;BMP280;69239;50.678;12.280;2023-11-22T13:50:44;98655.66;;;2.04
79756;BMP280;69239;50.678;12.280;2023-11-22T13:53:09;98668.63;;;2.04
79756;BMP280;69239;50.678;12.280;2023-11-22T13:55:36;98654.16;;;1.96
79756;BMP280;69239;50.678;12.280;2023-11-22T13:58:02;98674.53;;;2.11
79756;BMP280;69239;50.678;12.280;2023-11-22T14:00:30;98649.56;;;2.28
79756;BMP280;69239;50.678;12.280;2023-11-22T14:03:01;98665.81;;;2.77
79756;BMP280;69239;50.678;12.280;2023-11-22T14:05:32;98661.06;;;2.97
79756;BMP280;69239;50.678;12.280;2023-11-22T14:07:58;98657.22;;;2.88
79756;BMP280;69239;50.678;12.280;2023-11-22T14:10:24;98654.47;;;2.71